createdAt,value
2016-11-03T11:08:43.561Z,57.30
2016-11-03T11:09:15.498Z,57.20
2016-11-03T11:10:15.543Z,57.30
2016-11-03T11:11:14.143Z,57.20
2016-11-03T11:12:13.789Z,57.20
2016-11-03T11:13:10.312Z,is
2016-11-03T11:14:14.332Z,57.30
2016-11-03T11:15:15.202Z,57.20
2016-11-03T11:16:13.780Z,57.20
2016-11-03T11:17:13.808Z,57.20
2016-11-03T11:18:13.498Z,57.20
2016-11-03T11:19:13.492Z,57.20
2016-11-03T11:20:11.444Z,is
2016-11-03T11:21:13.644Z,57.30
2016-11-03T11:22:13.532Z,57.20
2016-11-03T11:23:13.660Z,57.20
2016-11-03T11:24:13.694Z,57.20
2016-11-03T11:25:14.321Z,57.20
2016-11-03T11:26:14.648Z,57.20
2016-11-03T11:27:13.667Z,57.20
2016-11-03T11:28:13.902Z,57.20
2016-11-03T11:29:13.914Z,57.30
2016-11-03T11:30:13.794Z,57.20
2016-11-03T11:31:14.175Z,57.20
2016-11-03T11:32:14.320Z,57.30
2016-11-03T11:33:10.753Z,is
2016-11-03T11:34:13.492Z,57.30
2016-11-03T11:35:13.568Z,57.20
2016-11-03T11:36:12.531Z,57.20
2016-11-03T11:37:14.054Z,57.20
2016-11-03T11:38:14.635Z,57.30
2016-11-03T11:39:12.185Z,is
2016-11-03T11:40:17.223Z,57.20
2016-11-03T11:41:14.676Z,57.40
2016-11-03T11:42:14.749Z,56.80
2016-11-03T11:43:14.268Z,57.30
2016-11-03T11:44:14.450Z,57.20
2016-11-03T11:45:14.135Z,57.20
2016-11-03T11:46:14.258Z,57.40
2016-11-03T11:47:13.573Z,57.30
2016-11-03T11:48:13.502Z,57.20
2016-11-03T11:49:14.245Z,57.40
2016-11-03T11:50:14.367Z,57.30
2016-11-03T11:51:13.807Z,57.30
2016-11-03T11:52:14.866Z,57.30
2016-11-03T11:53:13.339Z,57.20
2016-11-03T11:54:14.933Z,57.30
2016-11-03T11:55:13.492Z,57.40
2016-11-03T11:56:13.791Z,57.30
2016-11-03T11:57:13.038Z,57.30
2016-11-03T11:58:14.642Z,57.20
2016-11-03T11:59:12.884Z,57.20
2016-11-03T12:00:13.878Z,57.10
2016-11-03T12:01:15.322Z,57.10
2016-11-03T12:02:15.077Z,57.30
2016-11-03T12:03:15.260Z,57.20
2016-11-03T12:04:12.930Z,57.10
2016-11-03T12:05:12.941Z,57.10
2016-11-03T12:06:12.942Z,57.20
2016-11-03T12:07:18.947Z,57.00
2016-11-03T12:08:14.201Z,57.10
2016-11-03T12:09:13.805Z,57.10
2016-11-03T12:10:11.772Z,is
2016-11-03T12:11:12.983Z,57.00
2016-11-03T12:12:16.206Z,56.90
2016-11-03T12:13:14.184Z,57.00
2016-11-03T12:14:13.746Z,57.10
2016-11-03T12:15:14.906Z,57.00
2016-11-03T12:16:14.297Z,57.00
2016-11-03T12:17:14.087Z,56.90
2016-11-03T12:18:13.452Z,57.10
2016-11-03T12:19:13.777Z,57.00
2016-11-03T12:20:13.450Z,57.10
2016-11-03T12:21:19.127Z,57.10
2016-11-03T12:22:13.208Z,57.10
2016-11-03T12:23:10.917Z,is
2016-11-03T12:24:12.547Z,57.00
2016-11-03T12:25:14.286Z,57.00
2016-11-03T12:26:13.318Z,57.00
2016-11-03T12:27:12.773Z,57.30
2016-11-03T12:28:13.090Z,57.00
2016-11-03T12:29:19.400Z,56.90
2016-11-03T12:30:13.867Z,56.80
2016-11-03T12:31:13.507Z,56.90
2016-11-03T12:32:12.052Z,56.70
2016-11-03T12:33:12.624Z,56.70
2016-11-03T12:34:12.414Z,56.80
2016-11-03T12:35:11.926Z,56.80
2016-11-03T12:36:13.865Z,56.90
2016-11-03T12:37:12.904Z,56.80
2016-11-03T12:38:18.136Z,56.80
2016-11-03T12:39:15.834Z,56.90
2016-11-03T12:40:12.995Z,56.80
2016-11-03T12:41:12.427Z,56.80
2016-11-03T12:42:12.730Z,56.90
2016-11-03T12:43:11.349Z,is
2016-11-03T12:44:13.496Z,57.00
2016-11-03T12:45:12.696Z,56.80
2016-11-03T12:46:11.078Z,is
2016-11-03T12:47:12.970Z,56.90
2016-11-03T12:48:12.460Z,56.70
2016-11-03T12:49:13.135Z,56.80
2016-11-03T12:50:13.995Z,56.90
2016-11-03T12:51:13.311Z,56.20
2016-11-03T12:52:13.749Z,56.80
2016-11-03T12:53:14.066Z,56.90
2016-11-03T12:54:10.987Z,is
2016-11-03T12:55:14.079Z,56.70
2016-11-03T12:56:12.568Z,56.70
2016-11-03T12:57:14.441Z,55.90
2016-11-03T12:58:12.551Z,56.90
2016-11-03T12:59:14.284Z,56.80
2016-11-03T13:00:12.552Z,56.70
2016-11-03T13:01:12.638Z,56.90
2016-11-03T13:02:14.328Z,56.80
2016-11-03T13:03:12.794Z,56.80
2016-11-03T13:04:13.639Z,56.70
2016-11-03T13:05:12.044Z,56.70
2016-11-03T13:06:12.319Z,56.70
2016-11-03T13:07:14.579Z,56.90
2016-11-03T13:08:11.855Z,56.80
2016-11-03T13:09:17.913Z,56.70
2016-11-03T13:10:12.400Z,56.70
2016-11-03T13:11:12.686Z,56.80
2016-11-03T13:12:12.423Z,56.70
2016-11-03T13:13:12.577Z,56.70
2016-11-03T13:14:12.615Z,56.60
2016-11-03T13:15:12.437Z,56.70
2016-11-03T13:16:14.570Z,55.80
2016-11-03T13:17:09.997Z,is
2016-11-03T13:18:18.380Z,55.80
2016-11-03T13:19:13.622Z,56.70
2016-11-03T13:20:12.157Z,56.60
2016-11-03T13:21:12.704Z,56.70
2016-11-03T13:22:13.182Z,56.70
2016-11-03T13:23:11.236Z,is
2016-11-03T13:24:18.544Z,56.70
2016-11-03T13:25:12.136Z,56.60
2016-11-03T13:26:13.925Z,56.70
2016-11-03T13:27:12.785Z,56.60
2016-11-03T13:28:14.365Z,56.70
2016-11-03T13:29:14.288Z,56.60
2016-11-03T13:30:13.457Z,56.60
2016-11-03T13:31:12.426Z,56.50
2016-11-03T13:32:14.636Z,56.50
2016-11-03T13:33:12.607Z,56.50
2016-11-03T13:34:13.051Z,56.40
2016-11-03T13:35:12.431Z,56.40
2016-11-03T13:36:11.900Z,56.50
2016-11-03T13:37:13.337Z,56.60
2016-11-03T13:38:16.697Z,56.40
2016-11-03T13:39:14.311Z,55.70
2016-11-03T13:40:13.531Z,56.50
2016-11-03T13:41:13.426Z,55.70
2016-11-03T13:42:13.574Z,56.50
2016-11-03T13:43:10.925Z,is
2016-11-03T13:44:12.232Z,56.70
2016-11-03T13:45:11.735Z,is
2016-11-03T13:46:13.295Z,56.60
2016-11-03T13:47:12.787Z,56.60
2016-11-03T13:48:19.813Z,56.60
2016-11-03T13:49:13.248Z,56.60
2016-11-03T13:50:13.034Z,56.70
2016-11-03T13:51:18.085Z,56.50
2016-11-03T13:52:12.687Z,56.60
2016-11-03T13:53:18.686Z,57.20
2016-11-03T13:54:14.533Z,56.20
2016-11-03T13:55:13.240Z,56.30
2016-11-03T13:56:14.252Z,56.00
2016-11-03T13:57:13.726Z,55.80
2016-11-03T13:58:12.180Z,55.30
2016-11-03T13:59:11.359Z,is
2016-11-03T14:00:12.418Z,55.20
2016-11-03T14:01:12.943Z,55.20
2016-11-03T14:02:13.850Z,53.60
2016-11-03T14:03:12.760Z,54.40
2016-11-03T14:04:13.294Z,54.50
2016-11-03T14:05:13.255Z,54.60
2016-11-03T14:06:13.090Z,54.90
2016-11-03T14:07:13.773Z,54.80
2016-11-03T14:08:14.703Z,54.20
2016-11-03T14:09:12.467Z,54.00
2016-11-03T14:10:12.531Z,53.90
2016-11-03T14:11:12.527Z,55.20
2016-11-03T14:12:12.691Z,54.70
2016-11-03T14:13:12.961Z,54.80
2016-11-03T14:14:13.686Z,54.70
2016-11-03T14:15:12.914Z,54.40
2016-11-03T14:16:12.366Z,54.70
2016-11-03T14:17:13.026Z,54.40
2016-11-03T14:18:14.318Z,54.50
2016-11-03T14:19:12.758Z,53.80
2016-11-03T14:20:13.376Z,53.90
2016-11-03T14:21:11.866Z,54.30
2016-11-03T14:22:15.368Z,53.70
2016-11-03T14:23:13.014Z,54.20
2016-11-03T14:24:15.815Z,53.70
2016-11-03T14:25:12.357Z,54.70
2016-11-03T14:26:14.156Z,54.70
2016-11-03T14:27:13.356Z,54.00
2016-11-03T14:28:11.723Z,is
2016-11-03T14:29:16.627Z,54.20
2016-11-03T14:30:13.435Z,54.00
2016-11-03T14:31:12.628Z,54.20
2016-11-03T14:32:12.085Z,54.20
2016-11-03T14:33:12.947Z,53.90
2016-11-03T14:34:13.053Z,53.60
2016-11-03T14:35:12.777Z,53.70
2016-11-03T14:36:12.557Z,54.00
2016-11-03T14:37:11.979Z,54.10
2016-11-03T14:38:13.008Z,54.30
2016-11-03T14:39:12.480Z,53.90
2016-11-03T14:40:13.959Z,53.00
2016-11-03T14:41:12.702Z,54.00
2016-11-03T14:42:13.386Z,54.00
2016-11-03T14:43:12.931Z,53.40
2016-11-03T14:44:13.068Z,53.10
2016-11-03T14:45:12.181Z,53.10
2016-11-03T14:46:18.270Z,53.30
2016-11-03T14:47:15.295Z,53.80
2016-11-03T14:48:21.859Z,53.40
2016-11-03T14:49:14.749Z,53.30
2016-11-03T14:50:14.708Z,52.80
2016-11-03T14:51:11.859Z,is
2016-11-03T14:52:13.596Z,53.00
2016-11-03T14:53:10.073Z,is
2016-11-03T14:54:12.301Z,52.20
2016-11-03T14:55:13.863Z,52.20
2016-11-03T14:56:12.725Z,52.50
2016-11-03T14:57:18.290Z,52.50
2016-11-03T14:58:13.182Z,52.20
2016-11-03T14:59:12.727Z,52.30
2016-11-03T15:00:13.365Z,52.40
2016-11-03T15:01:14.193Z,52.50
2016-11-03T15:02:12.815Z,52.20
2016-11-03T15:03:19.765Z,52.40
2016-11-03T15:04:12.146Z,52.50
2016-11-03T15:05:13.571Z,53.10
2016-11-03T15:06:11.136Z,is
2016-11-03T15:07:13.814Z,52.70
2016-11-03T15:08:12.743Z,53.00
2016-11-03T15:09:12.103Z,52.60
2016-11-03T15:10:13.546Z,52.30
2016-11-03T15:11:12.100Z,52.70
2016-11-03T15:12:13.077Z,52.10
2016-11-03T15:13:13.979Z,52.80
2016-11-03T15:14:12.669Z,52.80
2016-11-03T15:15:12.158Z,52.50
2016-11-03T15:16:12.565Z,52.20
2016-11-03T15:17:12.478Z,52.50
2016-11-03T15:18:12.393Z,52.40
2016-11-03T15:19:14.178Z,52.40
2016-11-03T15:20:13.296Z,52.60
2016-11-03T15:21:12.657Z,52.30
2016-11-03T15:22:12.857Z,52.30
2016-11-03T15:23:14.594Z,51.10
2016-11-03T15:24:13.462Z,52.30
2016-11-03T15:25:12.470Z,52.40
2016-11-03T15:26:13.182Z,51.80
2016-11-03T15:27:13.831Z,52.50
2016-11-03T15:28:12.357Z,53.00
2016-11-03T15:29:12.777Z,53.40
2016-11-03T15:30:11.143Z,is
2016-11-03T15:31:11.818Z,53.80
2016-11-03T15:32:12.232Z,53.80
2016-11-03T15:33:13.449Z,53.90
2016-11-03T15:34:12.220Z,53.80
2016-11-03T15:35:12.447Z,53.80
2016-11-03T15:36:12.674Z,53.90
2016-11-03T15:37:11.977Z,53.80
2016-11-03T15:38:12.397Z,53.80
2016-11-03T15:39:12.483Z,53.80
2016-11-03T15:40:14.232Z,53.80
2016-11-03T15:41:12.752Z,53.80
2016-11-03T15:42:12.869Z,53.80
2016-11-03T15:43:11.893Z,53.80
2016-11-03T15:44:14.728Z,54.00
2016-11-03T15:45:11.034Z,is
2016-11-03T15:46:14.224Z,53.90
2016-11-03T15:47:13.066Z,53.80
2016-11-03T15:48:12.717Z,53.90
2016-11-03T15:49:12.249Z,53.90
2016-11-03T15:50:12.853Z,53.90
2016-11-03T15:51:14.828Z,54.00
2016-11-03T15:52:12.835Z,54.00
2016-11-03T15:53:13.288Z,54.00
2016-11-03T15:54:13.422Z,54.10
2016-11-03T15:55:11.835Z,54.10
2016-11-03T15:56:10.545Z,is
2016-11-03T15:57:12.194Z,54.10
2016-11-03T15:58:13.017Z,54.30
2016-11-03T15:59:14.777Z,54.20
2016-11-03T16:00:12.846Z,54.30
2016-11-03T16:01:14.796Z,54.20
2016-11-03T16:02:12.148Z,54.20
2016-11-03T16:03:13.545Z,54.30
2016-11-03T16:04:12.083Z,54.20
2016-11-03T16:05:12.696Z,54.20
2016-11-03T16:06:13.373Z,54.30
2016-11-03T16:07:12.849Z,54.30
2016-11-03T16:08:13.268Z,54.30
2016-11-03T16:09:13.220Z,54.30
2016-11-03T16:10:14.201Z,54.60
2016-11-03T16:11:13.172Z,54.60
2016-11-03T16:12:13.779Z,54.70
2016-11-03T16:13:13.447Z,54.50
2016-11-03T16:14:11.779Z,54.70
2016-11-03T16:15:12.180Z,54.70
2016-11-03T16:16:13.156Z,54.70
2016-11-03T16:17:12.756Z,54.70
2016-11-03T16:18:12.105Z,54.70
2016-11-03T16:19:12.318Z,54.80
2016-11-03T16:20:13.106Z,54.70
2016-11-03T16:21:12.085Z,54.70
2016-11-03T16:22:13.029Z,54.70
2016-11-03T16:23:12.941Z,54.70
2016-11-03T16:24:12.352Z,54.80
2016-11-03T16:25:13.271Z,54.80
2016-11-03T16:26:12.575Z,54.70
2016-11-03T16:27:11.868Z,54.80
2016-11-03T16:28:14.763Z,54.70
2016-11-03T16:29:12.481Z,54.80
2016-11-03T16:30:12.931Z,54.40
2016-11-03T16:31:12.491Z,54.70
2016-11-03T16:32:12.603Z,54.70
2016-11-03T16:33:11.949Z,54.70
2016-11-03T16:34:12.362Z,54.70
2016-11-03T16:35:12.687Z,54.70
2016-11-03T16:36:12.792Z,54.70
2016-11-03T16:37:13.684Z,54.60
2016-11-03T16:38:12.381Z,54.60
2016-11-03T16:39:11.819Z,54.60
2016-11-03T16:40:12.659Z,54.60
2016-11-03T16:41:12.663Z,54.70
2016-11-03T16:42:11.451Z,is
2016-11-03T16:43:12.722Z,54.20
2016-11-03T16:44:13.801Z,54.70
2016-11-03T16:45:12.850Z,54.60
2016-11-03T16:46:12.369Z,54.50
2016-11-03T16:47:13.285Z,54.60
2016-11-03T16:48:12.766Z,54.50
2016-11-03T16:49:12.113Z,54.50
2016-11-03T16:50:12.441Z,54.50
2016-11-03T16:51:12.930Z,54.60
2016-11-03T16:52:14.125Z,54.50
2016-11-03T16:53:12.598Z,54.40
2016-11-03T16:54:11.010Z,is
2016-11-03T16:55:13.691Z,54.60
2016-11-03T16:56:12.642Z,54.50
2016-11-03T16:57:12.511Z,54.60
2016-11-03T16:58:12.948Z,54.60
2016-11-03T16:59:12.280Z,54.60
2016-11-03T17:00:12.585Z,54.70
2016-11-03T17:01:13.365Z,54.70
2016-11-03T17:02:12.580Z,54.60
2016-11-03T17:03:12.133Z,54.70
2016-11-03T17:04:13.011Z,54.70
2016-11-03T17:05:12.894Z,54.70
2016-11-03T17:06:12.635Z,54.80
2016-11-03T17:07:12.078Z,54.70
2016-11-03T17:08:11.481Z,is
2016-11-03T17:09:12.936Z,54.80
2016-11-03T17:10:12.693Z,54.70
2016-11-03T17:11:13.309Z,54.70
2016-11-03T17:12:12.220Z,54.70
2016-11-03T17:13:12.770Z,54.80
2016-11-03T17:14:13.210Z,54.80
2016-11-03T17:15:14.933Z,54.80
2016-11-03T17:16:13.553Z,54.80
2016-11-03T17:17:12.896Z,54.80
2016-11-03T17:18:13.276Z,54.80
2016-11-03T17:19:13.040Z,54.90
2016-11-03T17:20:13.892Z,54.90
2016-11-03T17:21:13.197Z,55.00
2016-11-03T17:22:12.477Z,54.90
2016-11-03T17:23:12.266Z,54.90
2016-11-03T17:24:13.289Z,54.90
2016-11-03T17:25:12.841Z,54.80
2016-11-03T17:26:11.347Z,is
2016-11-03T17:27:11.873Z,is
2016-11-03T17:28:11.920Z,55.00
2016-11-03T17:29:12.483Z,54.90
2016-11-03T17:30:13.393Z,54.90
2016-11-03T17:31:12.729Z,54.80
2016-11-03T17:32:12.165Z,55.10
2016-11-03T17:33:12.422Z,55.20
2016-11-03T17:34:10.592Z,is
2016-11-03T17:35:13.568Z,55.30
2016-11-03T17:36:13.198Z,55.30
2016-11-03T17:37:13.153Z,55.40
2016-11-03T17:38:12.874Z,55.60
2016-11-03T17:39:12.312Z,55.30
2016-11-03T17:40:12.770Z,55.30
2016-11-03T17:41:13.137Z,55.30
2016-11-03T17:42:13.394Z,55.40
2016-11-03T17:43:13.150Z,55.30
2016-11-03T17:44:10.072Z,is
2016-11-03T17:45:12.697Z,53.40
2016-11-03T17:46:12.919Z,55.00
2016-11-03T17:47:12.459Z,55.20
2016-11-03T17:48:13.191Z,55.30
2016-11-03T17:49:12.899Z,55.50
2016-11-03T17:50:12.680Z,55.50
2016-11-03T17:51:12.781Z,55.60
2016-11-03T17:52:13.097Z,55.40
2016-11-03T17:53:12.892Z,55.60
2016-11-03T17:54:12.477Z,55.50
2016-11-03T17:55:11.979Z,55.70
2016-11-03T17:56:13.282Z,55.40
2016-11-03T17:57:12.795Z,55.40
2016-11-03T17:58:12.318Z,55.40
2016-11-03T17:59:13.400Z,55.30
2016-11-03T18:00:13.196Z,55.50
2016-11-03T18:01:12.956Z,55.40
2016-11-03T18:02:12.577Z,55.40
2016-11-03T18:03:13.241Z,55.50
2016-11-03T18:04:18.353Z,55.50
2016-11-03T18:05:13.262Z,55.50
2016-11-03T18:06:13.190Z,55.50
2016-11-03T18:07:10.442Z,is
2016-11-03T18:08:11.989Z,55.40
2016-11-03T18:09:14.619Z,55.50
2016-11-03T18:10:15.511Z,55.70
2016-11-03T18:11:12.827Z,55.50
2016-11-03T18:12:12.214Z,55.40
2016-11-03T18:13:12.631Z,55.30
2016-11-03T18:14:14.602Z,54.60
2016-11-03T18:15:12.949Z,55.50
2016-11-03T18:16:12.802Z,55.50
2016-11-03T18:17:12.879Z,55.60
2016-11-03T18:18:12.387Z,55.50
2016-11-03T18:19:11.886Z,55.50
2016-11-03T18:20:11.607Z,is
2016-11-03T18:21:12.723Z,55.50
2016-11-03T18:22:12.957Z,55.60
2016-11-03T18:23:11.424Z,is
2016-11-03T18:24:11.367Z,is
2016-11-03T18:25:12.166Z,55.50
2016-11-03T18:26:12.609Z,55.60
2016-11-03T18:27:13.741Z,55.70
2016-11-03T18:28:12.263Z,55.70
2016-11-03T18:29:13.339Z,55.60
2016-11-03T18:30:13.995Z,55.70
2016-11-03T18:31:12.276Z,55.60
2016-11-03T18:32:14.314Z,55.70
2016-11-03T18:33:12.467Z,55.60
2016-11-03T18:34:12.480Z,55.60
2016-11-03T18:35:11.971Z,55.60
2016-11-03T18:36:13.055Z,55.70
2016-11-03T18:37:12.594Z,55.70
2016-11-03T18:38:12.001Z,55.70
2016-11-03T18:39:11.955Z,is
2016-11-03T18:40:11.944Z,55.70
2016-11-03T18:41:13.156Z,55.70
2016-11-03T18:42:14.049Z,55.70
2016-11-03T18:43:12.598Z,55.70
2016-11-03T18:44:12.583Z,55.70
2016-11-03T18:45:11.994Z,55.70
2016-11-03T18:46:13.087Z,55.70
2016-11-03T18:47:12.509Z,55.70
2016-11-03T18:48:12.716Z,55.60
2016-11-03T18:49:15.803Z,56.10
2016-11-03T18:50:12.336Z,56.10
2016-11-03T18:51:12.531Z,55.70
2016-11-03T18:52:11.875Z,55.60
2016-11-03T18:53:12.710Z,55.70
2016-11-03T18:54:13.762Z,55.70
2016-11-03T18:55:12.640Z,55.70
2016-11-03T18:56:13.346Z,55.70
2016-11-03T18:57:13.743Z,55.70
2016-11-03T18:58:14.214Z,55.60
2016-11-03T18:59:13.601Z,55.70
2016-11-03T19:00:11.993Z,55.70
2016-11-03T19:01:13.009Z,55.70
2016-11-03T19:02:13.370Z,55.80
2016-11-03T19:03:12.218Z,55.80
2016-11-03T19:04:13.166Z,55.70
2016-11-03T19:05:12.996Z,55.70
2016-11-03T19:06:15.001Z,55.70
2016-11-03T19:07:13.013Z,55.70
2016-11-03T19:08:12.474Z,55.60
2016-11-03T19:09:12.439Z,55.70
2016-11-03T19:10:11.949Z,55.60
2016-11-03T19:11:12.504Z,55.00
2016-11-03T19:12:13.002Z,55.20
2016-11-03T19:13:12.561Z,55.30
2016-11-03T19:14:12.657Z,55.50
2016-11-03T19:15:11.965Z,55.60
2016-11-03T19:16:12.273Z,55.50
2016-11-03T19:17:12.614Z,55.40
2016-11-03T19:18:12.493Z,55.50
2016-11-03T19:19:11.945Z,55.50
2016-11-03T19:20:11.515Z,is
2016-11-03T19:21:12.734Z,55.40
2016-11-03T19:22:12.155Z,55.30
2016-11-03T19:23:13.225Z,55.40
2016-11-03T19:24:13.244Z,55.40
2016-11-03T19:25:12.572Z,55.30
2016-11-03T19:26:12.781Z,55.40
2016-11-03T19:27:12.024Z,55.30
2016-11-03T19:28:12.376Z,55.30
2016-11-03T19:29:12.729Z,55.20
2016-11-03T19:30:12.152Z,55.50
2016-11-03T19:31:13.112Z,55.30
2016-11-03T19:32:13.524Z,55.30
2016-11-03T19:33:12.399Z,55.40
2016-11-03T19:34:11.984Z,55.30
2016-11-03T19:35:13.881Z,55.40
2016-11-03T19:36:14.723Z,55.50
2016-11-03T19:37:12.813Z,55.30
2016-11-03T19:38:12.597Z,55.20
2016-11-03T19:39:12.574Z,55.40
2016-11-03T19:40:12.082Z,55.40
2016-11-03T19:41:13.981Z,55.40
2016-11-03T19:42:14.255Z,55.60
2016-11-03T19:43:13.000Z,55.90
2016-11-03T19:44:12.400Z,56.20
2016-11-03T19:45:11.742Z,56.60
2016-11-03T19:46:12.175Z,56.10
2016-11-03T19:47:12.834Z,55.90
2016-11-03T19:48:12.099Z,55.70
2016-11-03T19:49:12.929Z,55.70
2016-11-03T19:50:13.044Z,55.70
2016-11-03T19:51:12.905Z,55.70
2016-11-03T19:52:13.541Z,55.60
2016-11-03T19:53:12.115Z,55.50
2016-11-03T19:54:18.044Z,55.50
2016-11-03T19:55:13.195Z,55.50
2016-11-03T19:56:16.913Z,55.50
2016-11-03T19:57:13.094Z,55.40
2016-11-03T19:58:12.555Z,55.60
2016-11-03T19:59:12.286Z,55.70
2016-11-03T20:00:12.423Z,55.60
2016-11-03T20:01:12.631Z,55.60
2016-11-03T20:02:12.024Z,55.60
2016-11-03T20:03:17.592Z,54.70
2016-11-03T20:04:12.006Z,55.60
2016-11-03T20:05:13.312Z,55.60
2016-11-03T20:06:13.362Z,55.50
2016-11-03T20:07:15.095Z,55.40
2016-11-03T20:08:13.924Z,55.70
2016-11-03T20:09:12.803Z,55.60
2016-11-03T20:10:12.411Z,55.80
2016-11-03T20:11:12.265Z,55.90
2016-11-03T20:12:16.181Z,55.80
2016-11-03T20:13:12.884Z,56.10
2016-11-03T20:14:12.346Z,56.10
2016-11-03T20:15:12.743Z,56.20
2016-11-03T20:16:14.278Z,56.10
2016-11-03T20:17:12.875Z,55.90
2016-11-03T20:18:12.110Z,56.10
2016-11-03T20:19:14.847Z,56.20
2016-11-03T20:20:12.859Z,56.10
2016-11-03T20:21:21.372Z,56.10
2016-11-03T20:22:12.135Z,56.20
2016-11-03T20:23:13.571Z,56.40
2016-11-03T20:24:12.639Z,56.10
2016-11-03T20:25:12.848Z,56.10
2016-11-03T20:26:12.406Z,56.30
2016-11-03T20:27:11.705Z,56.30
2016-11-03T20:28:12.028Z,56.40
2016-11-03T20:29:14.778Z,56.30
2016-11-03T20:30:12.232Z,56.20
2016-11-03T20:31:12.692Z,56.40
2016-11-03T20:32:12.104Z,56.50
2016-11-03T20:33:13.026Z,56.50
2016-11-03T20:34:12.437Z,56.40
2016-11-03T20:35:11.995Z,56.50
2016-11-03T20:36:13.251Z,56.50
2016-11-03T20:37:14.150Z,55.80
2016-11-03T20:38:12.959Z,56.70
2016-11-03T20:39:13.282Z,56.60
2016-11-03T20:40:11.754Z,56.60
2016-11-03T20:41:12.587Z,56.70
2016-11-03T20:42:11.981Z,56.60
2016-11-03T20:43:12.539Z,56.60
2016-11-03T20:44:13.074Z,56.60
2016-11-03T20:45:12.876Z,56.70
2016-11-03T20:46:12.957Z,56.60
2016-11-03T20:47:13.345Z,56.60
2016-11-03T20:48:13.208Z,56.50
2016-11-03T20:49:13.949Z,56.60
2016-11-03T20:50:13.520Z,56.50
2016-11-03T20:51:12.558Z,56.50
2016-11-03T20:52:12.774Z,56.50
2016-11-03T20:53:13.034Z,56.60
2016-11-03T20:54:12.996Z,56.50
2016-11-03T20:55:12.422Z,56.50
2016-11-03T20:56:11.837Z,56.50
2016-11-03T20:57:12.359Z,56.60
2016-11-03T20:58:12.998Z,56.50
2016-11-03T20:59:13.228Z,56.50
2016-11-03T21:00:12.577Z,56.40
2016-11-03T21:01:17.391Z,56.40
2016-11-03T21:02:12.515Z,56.60
2016-11-03T21:03:12.486Z,56.60
2016-11-03T21:04:14.900Z,56.60
2016-11-03T21:05:14.161Z,56.60
2016-11-03T21:06:11.635Z,is
2016-11-03T21:07:12.333Z,56.50
2016-11-03T21:08:13.212Z,56.40
2016-11-03T21:09:12.527Z,56.50
2016-11-03T21:10:12.932Z,56.50
2016-11-03T21:11:12.344Z,56.50
2016-11-03T21:12:12.544Z,56.50
2016-11-03T21:13:12.129Z,56.60
2016-11-03T21:14:13.243Z,56.50
2016-11-03T21:15:13.724Z,56.60
2016-11-03T21:16:13.057Z,56.60
2016-11-03T21:17:12.806Z,56.80
2016-11-03T21:18:12.164Z,56.60
2016-11-03T21:19:13.143Z,56.70
2016-11-03T21:20:12.504Z,56.50
2016-11-03T21:21:11.782Z,56.50
2016-11-03T21:22:10.577Z,is
2016-11-03T21:23:12.310Z,57.00
2016-11-03T21:24:15.553Z,56.90
2016-11-03T21:25:12.852Z,56.80
2016-11-03T21:26:13.404Z,56.90
2016-11-03T21:27:11.759Z,56.60
2016-11-03T21:28:13.746Z,56.60
2016-11-03T21:29:12.118Z,56.70
2016-11-03T21:30:13.843Z,56.80
2016-11-03T21:31:13.157Z,56.90
2016-11-03T21:32:11.885Z,is
2016-11-03T21:33:12.127Z,56.80
2016-11-03T21:34:13.322Z,56.80
2016-11-03T21:35:11.827Z,56.80
2016-11-03T21:36:12.765Z,56.70
2016-11-03T21:37:12.634Z,56.90
2016-11-03T21:38:12.873Z,56.80
2016-11-03T21:39:12.637Z,56.90
2016-11-03T21:40:12.474Z,56.80
2016-11-03T21:41:12.486Z,56.80
2016-11-03T21:42:14.329Z,57.60
2016-11-03T21:43:13.493Z,56.90
2016-11-03T21:44:13.047Z,56.90
2016-11-03T21:45:12.477Z,56.80
2016-11-03T21:46:12.391Z,56.70
2016-11-03T21:47:11.835Z,56.70
2016-11-03T21:48:12.337Z,56.60
2016-11-03T21:49:12.699Z,56.80
2016-11-03T21:50:12.170Z,56.70
2016-11-03T21:51:13.790Z,56.80
2016-11-03T21:52:12.622Z,56.70
2016-11-03T21:53:17.904Z,57.10
2016-11-03T21:54:12.373Z,56.70
2016-11-03T21:55:12.380Z,56.70
2016-11-03T21:56:12.651Z,56.80
2016-11-03T21:57:12.003Z,56.70
2016-11-03T21:58:13.858Z,56.70
2016-11-03T21:59:12.383Z,56.70
2016-11-03T22:00:11.904Z,56.70
2016-11-03T22:01:13.758Z,56.80
2016-11-03T22:02:13.329Z,56.70
2016-11-03T22:03:13.274Z,56.80
2016-11-03T22:04:13.564Z,56.80
2016-11-03T22:05:12.153Z,56.70
2016-11-03T22:06:13.373Z,56.70
2016-11-03T22:07:17.765Z,56.80
2016-11-03T22:08:12.346Z,56.80
2016-11-03T22:09:11.894Z,56.70
2016-11-03T22:10:10.379Z,is
2016-11-03T22:11:12.054Z,56.80
2016-11-03T22:12:12.525Z,56.70
2016-11-03T22:13:13.030Z,56.80
2016-11-03T22:14:13.340Z,56.80
2016-11-03T22:15:13.035Z,56.90
2016-11-03T22:16:12.654Z,56.80
2016-11-03T22:17:10.694Z,is
2016-11-03T22:18:11.121Z,is
2016-11-03T22:19:10.743Z,is
2016-11-03T22:20:13.410Z,56.00
2016-11-03T22:21:11.860Z,56.80
2016-11-03T22:22:12.142Z,57.00
2016-11-03T22:23:16.006Z,56.90
2016-11-03T22:24:12.425Z,56.90
2016-11-03T22:25:11.858Z,56.80
2016-11-03T22:26:12.814Z,56.90
2016-11-03T22:27:14.134Z,56.80
2016-11-03T22:28:10.645Z,is
2016-11-03T22:29:12.194Z,56.60
2016-11-03T22:30:12.721Z,56.70
2016-11-03T22:31:12.641Z,56.80
2016-11-03T22:32:12.164Z,56.80
2016-11-03T22:33:12.616Z,57.10
2016-11-03T22:34:12.121Z,57.20
2016-11-03T22:35:13.026Z,57.20
2016-11-03T22:36:13.202Z,57.30
2016-11-03T22:37:11.689Z,is
2016-11-03T22:38:12.504Z,57.30
2016-11-03T22:39:10.579Z,is
2016-11-03T22:40:12.634Z,57.20
2016-11-03T22:41:12.566Z,57.20
2016-11-03T22:42:18.428Z,57.20
2016-11-03T22:43:13.148Z,56.90
2016-11-03T22:44:13.656Z,57.20
2016-11-03T22:45:11.983Z,57.20
2016-11-03T22:46:12.649Z,57.30
2016-11-03T22:47:12.207Z,56.90
2016-11-03T22:48:11.490Z,is
2016-11-03T22:49:10.970Z,is
2016-11-03T22:50:13.129Z,56.70
2016-11-03T22:51:12.492Z,56.90
2016-11-03T22:52:12.417Z,57.00
2016-11-03T22:53:12.035Z,57.00
2016-11-03T22:54:13.851Z,57.10
2016-11-03T22:55:12.219Z,57.10
2016-11-03T22:56:13.598Z,57.00
2016-11-03T22:57:12.433Z,57.20
2016-11-03T22:58:12.309Z,57.00
2016-11-03T22:59:11.991Z,57.10
2016-11-03T23:00:13.246Z,57.00
2016-11-03T23:01:12.798Z,57.20
2016-11-03T23:02:12.786Z,56.90
2016-11-03T23:03:13.436Z,56.90
2016-11-03T23:04:12.606Z,56.90
2016-11-03T23:05:11.001Z,is
2016-11-03T23:06:11.651Z,is
2016-11-03T23:07:13.208Z,56.70
2016-11-03T23:08:13.082Z,56.80
2016-11-03T23:09:13.124Z,56.70
2016-11-03T23:10:13.029Z,56.70
2016-11-03T23:11:15.856Z,56.90
2016-11-03T23:12:12.341Z,56.60
2016-11-03T23:13:12.403Z,56.70
2016-11-03T23:14:12.659Z,55.60
2016-11-03T23:15:12.536Z,55.70
2016-11-03T23:16:12.862Z,56.10
2016-11-03T23:17:12.416Z,56.10
2016-11-03T23:18:11.913Z,56.10
2016-11-03T23:19:12.562Z,56.30
2016-11-03T23:20:14.148Z,56.30
2016-11-03T23:21:13.171Z,56.40
2016-11-03T23:22:13.838Z,56.20
2016-11-03T23:23:12.277Z,56.30
2016-11-03T23:24:12.821Z,56.30
2016-11-03T23:25:12.911Z,56.20
2016-11-03T23:26:12.555Z,56.40
2016-11-03T23:27:12.551Z,56.20
2016-11-03T23:28:13.230Z,56.40
2016-11-03T23:29:13.132Z,56.30
2016-11-03T23:30:13.280Z,56.40
2016-11-03T23:31:13.331Z,56.30
2016-11-03T23:32:12.273Z,56.40
2016-11-03T23:33:12.734Z,56.30
2016-11-03T23:34:12.450Z,56.30
2016-11-03T23:35:12.102Z,56.30
2016-11-03T23:36:12.666Z,56.30
2016-11-03T23:37:11.934Z,56.50
2016-11-03T23:38:12.393Z,56.30
2016-11-03T23:39:12.562Z,56.50
2016-11-03T23:40:12.145Z,56.50
2016-11-03T23:41:12.729Z,56.60
2016-11-03T23:42:12.512Z,56.80
2016-11-03T23:43:12.531Z,56.70
2016-11-03T23:44:12.796Z,56.70
2016-11-03T23:45:12.315Z,56.70
2016-11-03T23:46:13.604Z,56.70
2016-11-03T23:47:12.055Z,56.70
2016-11-03T23:48:18.364Z,56.70
2016-11-03T23:49:15.352Z,56.60
2016-11-03T23:50:11.407Z,is
2016-11-03T23:51:12.890Z,56.90
2016-11-03T23:52:12.436Z,56.90
2016-11-03T23:53:12.848Z,57.00
2016-11-03T23:54:12.083Z,56.80
2016-11-03T23:55:13.539Z,56.80
2016-11-03T23:56:12.525Z,56.70
2016-11-03T23:57:12.314Z,56.70
2016-11-03T23:58:12.512Z,56.70
2016-11-03T23:59:11.398Z,is
